Burwell, NE

5:03 PM CDT on July 12, 2014 (GMT -0500)
Sharp (KODX) Elev 2070 ft | 41.62 °N, 98.95 °W | Change Station

Current weather conditions updated 10 minutes ago

Clear
Clear
78 °F
Feels Like 78 °F
N
5
Wind Variable Wind from Variable

Tomorrow is forecast to be Much Warmer than today.

Today
High -- | Low -- °F
--% Chance of Precip.
Yesterday
High -- | Low -- °F
Precip. -- in
6:12 AM 9:11 PM
Full, 100% visible
Pressure 30.03 in
Visibility 10.0 miles
Clouds Clear
Dew Point 67 °F
Humidity 68%
Rainfall 0.22 in
Snow Depth Not available.
UV 7 out of 12
Pollen 4.60 out of 12
Air Quality Not available.
Flu Activity Sporadic
METAR KODX 122153Z AUTO VRB04KT 10SM CLR 26/19 A3006 RMK AO2 SLP168 T02560194

More Conditions Fewer Conditions

Pressure 30.03 in
Visibility 10.0 miles
Clouds Clear
Dew Point 67 °F
Humidity 68%
Rainfall 0.22 in
Snow Depth Not available.
UV 7 out of 12
Pollen 4.60 out of 12
Air Quality Not available.
Flu Activity Sporadic
METAR KODX 122153Z AUTO VRB04KT 10SM CLR 26/19 A3006 RMK AO2 SLP168 T02560194

More Conditions Fewer Conditions

10-Day Weather Forecast

Almanac

Astronomy

Jul. 12, 2014 Rise Set
Actual Time 6:12 AM CDT 9:11 PM CDT
Civil Twilight 5:39 AM CDT 9:44 PM CDT
Nautical Twilight 4:56 AM CDT 10:27 PM CDT
Astronomical Twilight 4:06 AM CDT 11:16 PM CDT
Moon 9:12 PM CDT 6:35 AM CDT
Length of Visible Light 16h 05m
Length of Day
14h 58m
Tomorrow will be 1m 19s shorter.
Full, 100% of the Moon is Illuminated
Today
Full
Jul 18
Last Quarter
Jul 26
New
Aug 3
First Quarter
Aug 10
Full

Today's Extremes

State Highs State Lows

Community

WunderPhotos

Upload Photos

1,732,983 photos uploaded!

Nearby

Snow Depth

Station Depth Elevation
No new snow has been reported.

Earthquake Activity

City Distance Mag. Time & Date
No recent earthquake activity has been reported nearby.
Minimum magnitude displayed is 2.5.

Coastal Water Temperatures

Place Temperature
No Stations Reporting

Nearby Weather Stations

Station Location Temp. Heat Index Dew Point Humidity Wind Precip. Elev Updated Type
Sargent, Sargent, NE 81.1 °F 84 °F 69 °F 66% NNE  at  1.0 mph 0.00 in / hr 2314 ft 4:52 PM CDT Normal

Show More Stations Show Fewer Stations